createdAt,value
2023-04-18T00:00:10.418Z,62.40
2023-04-18T00:02:40.107Z,62.40
2023-04-18T00:05:12.440Z,62.40
2023-04-18T00:07:41.385Z,62.40
2023-04-18T00:10:10.243Z,62.40
2023-04-18T00:12:38.664Z,62.40
2023-04-18T00:15:08.960Z,62.40
2023-04-18T00:17:38.534Z,62.40
2023-04-18T00:20:10.662Z,63.00
2023-04-18T00:22:43.930Z,62.40
2023-04-18T00:25:12.595Z,62.40
2023-04-18T00:27:42.626Z,62.40
2023-04-18T00:30:11.753Z,62.40
2023-04-18T00:32:40.506Z,62.40
2023-04-18T00:35:09.422Z,62.40
2023-04-18T00:37:39.080Z,63.10
2023-04-18T00:40:08.932Z,62.40
2023-04-18T00:42:37.132Z,62.40
2023-04-18T00:45:06.236Z,62.40
2023-04-18T00:47:34.558Z,62.40
2023-04-18T00:50:02.963Z,62.40
2023-04-18T00:52:33.758Z,62.40
2023-04-18T00:55:05.435Z,62.40
2023-04-18T00:57:33.645Z,62.40
2023-04-18T01:00:04.427Z,62.40
2023-04-18T01:02:32.788Z,62.40
2023-04-18T01:05:01.221Z,62.40
2023-04-18T01:07:31.878Z,62.40
2023-04-18T01:10:00.478Z,62.40
2023-04-18T01:12:30.104Z,62.40
2023-04-18T01:14:58.893Z,62.40
2023-04-18T01:17:28.587Z,62.40
2023-04-18T01:19:58.009Z,62.40
2023-04-18T01:22:26.773Z,62.40
2023-04-18T01:24:57.227Z,62.40
2023-04-18T01:27:25.505Z,62.40
2023-04-18T01:29:53.820Z,62.40
2023-04-18T01:32:23.317Z,62.40
2023-04-18T01:34:51.731Z,62.40
2023-04-18T01:37:20.028Z,62.40
2023-04-18T01:39:49.452Z,62.40
2023-04-18T01:42:18.972Z,62.50
2023-04-18T01:44:47.214Z,62.40
2023-04-18T01:47:15.549Z,62.40
2023-04-18T01:49:48.173Z,62.40
2023-04-18T01:52:17.380Z,62.40
2023-04-18T01:54:45.631Z,62.40
2023-04-18T01:57:13.945Z,62.40
2023-04-18T01:59:43.722Z,62.40
2023-04-18T02:02:12.096Z,62.40
2023-04-18T02:04:40.452Z,62.40
2023-04-18T02:07:08.672Z,62.40
2023-04-18T02:09:36.869Z,62.40
2023-04-18T02:12:05.172Z,62.50
2023-04-18T02:14:36.558Z,62.50
2023-04-18T02:17:06.248Z,62.40
2023-04-18T02:19:34.566Z,62.50
2023-04-18T02:22:02.863Z,62.40
2023-04-18T02:24:30.972Z,62.40
2023-04-18T02:26:59.226Z,62.40
2023-04-18T02:29:27.981Z,62.50
2023-04-18T02:31:56.432Z,62.40
2023-04-18T02:34:26.238Z,62.40
2023-04-18T02:36:54.483Z,62.40
2023-04-18T02:39:22.759Z,62.40
2023-04-18T02:41:50.934Z,62.50
2023-04-18T02:44:19.110Z,62.40
2023-04-18T02:46:47.352Z,62.50
2023-04-18T02:49:15.549Z,62.40
2023-04-18T02:51:45.271Z,62.40
2023-04-18T02:54:13.818Z,62.40
2023-04-18T02:56:42.914Z,62.40
2023-04-18T02:59:11.080Z,62.40
2023-04-18T03:01:39.534Z,62.40
2023-04-18T03:04:08.035Z,62.40
2023-04-18T03:06:36.333Z,62.40
2023-04-18T03:09:06.228Z,62.40
2023-04-18T03:11:34.518Z,62.40
2023-04-18T03:14:02.749Z,62.40
2023-04-18T03:16:31.177Z,62.50
2023-04-18T03:18:59.419Z,62.50
2023-04-18T03:21:27.543Z,62.50
2023-04-18T03:23:55.818Z,62.50
2023-04-18T03:26:26.855Z,62.50
2023-04-18T03:28:55.044Z,62.50
2023-04-18T03:31:23.535Z,62.60
2023-04-18T03:33:52.043Z,62.50
2023-04-18T03:36:25.335Z,62.60
2023-04-18T03:38:53.707Z,62.60
2023-04-18T03:41:22.065Z,62.60
2023-04-18T03:43:51.700Z,62.60
2023-04-18T03:46:22.032Z,62.60
2023-04-18T03:48:50.535Z,62.70
2023-04-18T03:51:18.717Z,62.70
2023-04-18T03:53:47.031Z,62.70
2023-04-18T03:56:15.574Z,62.70
2023-04-18T03:58:43.767Z,62.70
2023-04-18T04:01:13.848Z,62.70
2023-04-18T04:03:42.218Z,62.70
2023-04-18T04:06:10.788Z,62.80
2023-04-18T04:08:39.024Z,62.70
2023-04-18T04:11:07.255Z,62.80
2023-04-18T04:13:36.143Z,62.80
2023-04-18T04:16:04.686Z,62.80
2023-04-18T04:18:34.566Z,62.80
2023-04-18T04:21:04.925Z,62.80
2023-04-18T04:23:33.146Z,62.80
2023-04-18T04:26:03.823Z,62.70
2023-04-18T04:28:32.354Z,62.70
2023-04-18T04:31:00.662Z,62.80
2023-04-18T04:33:29.674Z,62.70
2023-04-18T04:35:59.514Z,62.80
2023-04-18T04:38:31.095Z,62.70
2023-04-18T04:40:59.801Z,62.80
2023-04-18T04:43:28.862Z,62.70
2023-04-18T04:45:57.877Z,62.70
2023-04-18T04:48:27.017Z,62.70
2023-04-18T04:50:57.603Z,62.80
2023-04-18T04:53:30.359Z,62.70
2023-04-18T04:55:59.350Z,62.80
2023-04-18T04:58:28.096Z,62.70
2023-04-18T05:00:56.379Z,62.70
2023-04-18T05:03:24.972Z,62.70
2023-04-18T05:05:53.289Z,62.70
2023-04-18T05:08:21.393Z,62.70
2023-04-18T05:10:51.108Z,62.70
2023-04-18T05:13:19.740Z,62.80
2023-04-18T05:15:48.040Z,62.70
2023-04-18T05:18:16.587Z,62.70
2023-04-18T05:20:44.787Z,62.70
2023-04-18T05:23:13.505Z,63.30
2023-04-18T05:25:41.868Z,62.70
2023-04-18T05:28:11.566Z,62.70
2023-04-18T05:30:40.737Z,62.70
2023-04-18T05:33:09.066Z,62.70
2023-04-18T05:35:38.130Z,62.70
2023-04-18T05:38:06.446Z,62.60
2023-04-18T05:40:34.994Z,62.60
2023-04-18T05:43:03.174Z,62.60
2023-04-18T05:45:32.849Z,62.70
2023-04-18T05:48:01.148Z,62.60
2023-04-18T05:50:29.583Z,62.60
2023-04-18T05:52:59.345Z,62.60
2023-04-18T05:55:27.793Z,62.60
2023-04-18T05:57:56.259Z,62.60
2023-04-18T06:00:25.045Z,62.60
2023-04-18T06:02:54.868Z,62.60
2023-04-18T06:05:23.479Z,62.60
2023-04-18T06:07:52.999Z,62.60
2023-04-18T06:10:21.364Z,62.60
2023-04-18T06:12:49.637Z,62.60
2023-04-18T06:15:18.139Z,62.60
2023-04-18T06:17:46.467Z,62.60
2023-04-18T06:20:16.185Z,62.50
2023-04-18T06:22:44.480Z,62.50
2023-04-18T06:25:12.658Z,62.50
2023-04-18T06:27:40.852Z,62.50
2023-04-18T06:30:10.054Z,62.50
2023-04-18T06:32:38.301Z,62.50
2023-04-18T06:35:07.438Z,62.50
2023-04-18T06:37:37.040Z,62.50
2023-04-18T06:40:05.844Z,62.50
2023-04-18T06:42:34.058Z,62.50
2023-04-18T06:45:03.566Z,62.50
2023-04-18T06:47:32.334Z,62.60
2023-04-18T06:50:00.613Z,62.60
2023-04-18T06:52:28.795Z,62.70
2023-04-18T06:54:58.426Z,62.70
2023-04-18T06:57:27.066Z,62.80
2023-04-18T06:59:55.431Z,62.80
2023-04-18T07:02:24.095Z,62.90
2023-04-18T07:04:52.291Z,62.90
2023-04-18T07:07:20.477Z,62.90
2023-04-18T07:09:50.183Z,62.90
2023-04-18T07:12:19.744Z,63.00
2023-04-18T07:14:48.718Z,62.90
2023-04-18T07:17:17.996Z,62.90
2023-04-18T07:19:46.279Z,62.90
2023-04-18T07:22:14.372Z,62.90
2023-04-18T07:24:44.053Z,62.90
2023-04-18T07:27:12.362Z,62.90
2023-04-18T07:29:42.028Z,62.90
2023-04-18T07:32:10.655Z,62.90
2023-04-18T07:34:40.492Z,62.90
2023-04-18T07:37:08.903Z,62.90
2023-04-18T07:39:37.386Z,63.00
2023-04-18T07:42:06.187Z,63.00
2023-04-18T07:44:36.956Z,62.90
2023-04-18T07:47:11.170Z,62.80
2023-04-18T07:49:39.895Z,62.90
2023-04-18T07:52:08.405Z,62.80
2023-04-18T07:54:36.758Z,62.80
2023-04-18T07:57:05.217Z,62.80
2023-04-18T07:59:33.667Z,62.70
2023-04-18T08:02:01.885Z,63.40
2023-04-18T08:04:31.664Z,62.70
2023-04-18T08:06:59.989Z,62.70
2023-04-18T08:09:28.309Z,62.70
2023-04-18T08:11:57.991Z,62.70
2023-04-18T08:14:26.361Z,63.30
2023-04-18T08:16:54.700Z,62.70
2023-04-18T08:19:23.872Z,62.70
2023-04-18T08:21:53.654Z,62.70
2023-04-18T08:24:22.082Z,62.70
2023-04-18T08:26:50.796Z,62.70
2023-04-18T08:29:19.007Z,62.70
2023-04-18T08:31:47.248Z,62.70
2023-04-18T08:34:15.563Z,62.70
2023-04-18T08:36:43.828Z,62.70
2023-04-18T08:39:13.874Z,62.70
2023-04-18T08:41:44.082Z,62.70
2023-04-18T08:44:13.547Z,62.70
2023-04-18T08:46:41.865Z,62.70
2023-04-18T08:49:11.866Z,62.70
2023-04-18T08:51:42.422Z,62.70
2023-04-18T08:54:12.368Z,62.70
2023-04-18T08:56:41.057Z,62.70
2023-04-18T08:59:09.634Z,62.70
2023-04-18T09:01:57.719Z,62.70
2023-04-18T09:04:35.468Z,62.60
2023-04-18T09:07:04.242Z,62.70
2023-04-18T09:09:44.715Z,62.60
2023-04-18T09:12:14.619Z,62.60
2023-04-18T09:14:47.119Z,62.60
2023-04-18T09:17:20.517Z,62.70
2023-04-18T09:19:50.207Z,62.70
2023-04-18T09:22:19.021Z,62.70
2023-04-18T09:24:55.499Z,62.70
2023-04-18T09:27:24.120Z,62.80
2023-04-18T09:29:55.909Z,62.80
2023-04-18T09:32:29.481Z,62.80
2023-04-18T09:35:03.998Z,62.90
2023-04-18T09:37:32.930Z,62.80
2023-04-18T09:40:16.817Z,62.90
2023-04-18T09:42:45.176Z,62.90
2023-04-18T09:45:14.249Z,63.00
2023-04-18T09:47:42.512Z,63.00
2023-04-18T09:50:11.887Z,63.10
2023-04-18T09:52:41.467Z,63.10
2023-04-18T09:55:12.513Z,63.00
2023-04-18T09:57:41.784Z,63.00
2023-04-18T10:00:14.170Z,63.00
2023-04-18T10:02:49.956Z,62.90
2023-04-18T10:05:20.936Z,63.50
2023-04-18T10:07:51.193Z,62.90
2023-04-18T10:10:21.532Z,62.90
2023-04-18T10:12:51.482Z,62.90
2023-04-18T10:15:21.634Z,63.00
2023-04-18T10:20:27.479Z,63.00
2023-04-18T10:22:56.696Z,63.00
2023-04-18T10:25:51.416Z,63.00
2023-04-18T10:28:21.037Z,63.00
2023-04-18T10:30:57.401Z,63.00
2023-04-18T10:33:34.300Z,63.00
2023-04-18T10:36:06.242Z,63.00
2023-04-18T10:38:35.226Z,63.00
2023-04-18T10:41:26.641Z,63.00
2023-04-18T10:44:23.709Z,63.00
2023-04-18T10:47:22.282Z,63.00
2023-04-18T10:49:59.004Z,63.10
2023-04-18T10:52:28.449Z,63.00
2023-04-18T10:55:17.544Z,63.00
2023-04-18T10:57:48.696Z,63.00
2023-04-18T11:00:21.694Z,63.00
2023-04-18T11:02:52.228Z,63.00
2023-04-18T11:05:23.085Z,63.00
2023-04-18T11:07:51.662Z,63.00
2023-04-18T11:10:21.156Z,63.00
2023-04-18T11:12:51.515Z,63.00
2023-04-18T11:15:22.260Z,63.10
2023-04-18T11:17:58.536Z,63.00
2023-04-18T11:20:27.409Z,63.00
2023-04-18T11:22:57.437Z,63.00
2023-04-18T11:25:28.853Z,63.10
2023-04-18T11:28:00.952Z,63.10
2023-04-18T11:30:31.391Z,63.00
2023-04-18T11:32:59.874Z,63.00
2023-04-18T11:35:28.263Z,62.90
2023-04-18T11:37:56.476Z,62.90
2023-04-18T11:40:24.617Z,63.00
2023-04-18T11:42:56.402Z,63.00
2023-04-18T11:45:26.029Z,62.90
2023-04-18T11:47:58.317Z,63.00
2023-04-18T11:50:27.085Z,63.00
2023-04-18T11:52:56.524Z,63.00
2023-04-18T11:55:27.257Z,63.00
2023-04-18T11:57:56.884Z,63.10
2023-04-18T12:00:34.735Z,63.10
2023-04-18T12:03:05.452Z,63.10
2023-04-18T12:05:35.136Z,63.10
2023-04-18T12:08:11.505Z,63.10
2023-04-18T12:10:46.250Z,63.10
2023-04-18T12:13:14.813Z,63.20
2023-04-18T12:15:46.606Z,63.30
2023-04-18T12:18:18.119Z,63.20
2023-04-18T12:20:50.618Z,63.30
2023-04-18T12:23:32.379Z,63.20
2023-04-18T12:26:02.076Z,63.20
2023-04-18T12:28:30.815Z,63.20
2023-04-18T12:31:00.487Z,63.10
2023-04-18T12:33:28.855Z,63.10
2023-04-18T12:35:57.462Z,63.10
2023-04-18T12:38:25.975Z,63.20
2023-04-18T12:40:54.268Z,63.30
2023-04-18T12:43:22.543Z,63.30
2023-04-18T12:45:51.817Z,63.10
2023-04-18T12:48:21.526Z,63.20
2023-04-18T12:50:49.733Z,63.30
2023-04-18T12:53:18.005Z,63.30
2023-04-18T12:55:46.349Z,63.30
2023-04-18T12:58:18.521Z,63.40
2023-04-18T13:00:46.987Z,63.30
2023-04-18T13:03:15.544Z,63.30
2023-04-18T13:05:45.363Z,63.20
2023-04-18T13:08:17.536Z,63.20
2023-04-18T13:10:47.582Z,63.20
2023-04-18T13:13:16.096Z,63.10
2023-04-18T13:15:44.386Z,63.10
2023-04-18T13:18:12.766Z,63.20
2023-04-18T13:20:41.171Z,63.30
2023-04-18T13:23:10.764Z,63.30
2023-04-18T13:25:39.578Z,63.20
2023-04-18T13:28:07.815Z,63.20
2023-04-18T13:30:36.657Z,63.30
2023-04-18T13:33:04.921Z,63.20
2023-04-18T13:35:33.302Z,63.10
2023-04-18T13:38:01.454Z,63.10
2023-04-18T13:40:31.083Z,63.20
2023-04-18T13:42:59.489Z,63.20
2023-04-18T13:45:27.984Z,63.20
2023-04-18T13:47:56.276Z,63.20
2023-04-18T13:50:24.738Z,63.10
2023-04-18T13:52:54.576Z,63.10
2023-04-18T13:55:23.101Z,63.00
2023-04-18T13:57:52.689Z,63.00
2023-04-18T14:00:21.667Z,63.10
2023-04-18T14:02:50.315Z,63.10
2023-04-18T14:05:18.688Z,63.10
2023-04-18T14:07:48.600Z,63.20
2023-04-18T14:10:16.834Z,63.20
2023-04-18T14:12:45.012Z,63.20
2023-04-18T14:15:14.640Z,63.20
2023-04-18T14:17:44.834Z,63.20
2023-04-18T14:20:15.720Z,63.20
2023-04-18T14:22:43.969Z,63.20
2023-04-18T14:25:12.166Z,63.20
2023-04-18T14:27:40.355Z,63.10
2023-04-18T14:30:10.092Z,63.20
2023-04-18T14:32:39.721Z,63.10
2023-04-18T14:35:09.338Z,63.10
2023-04-18T14:37:37.739Z,63.00
2023-04-18T14:40:08.208Z,63.00
2023-04-18T14:42:36.650Z,63.00
2023-04-18T14:45:05.519Z,63.00
2023-04-18T14:47:34.811Z,63.10
2023-04-18T14:50:04.904Z,63.00
2023-04-18T14:52:33.224Z,63.00
2023-04-18T14:55:01.518Z,63.00
2023-04-18T14:57:29.829Z,63.00
2023-04-18T14:59:58.106Z,63.10
2023-04-18T15:02:26.703Z,63.00
2023-04-18T15:04:55.346Z,63.00
2023-04-18T15:07:24.963Z,63.00
2023-04-18T15:09:53.278Z,63.00
2023-04-18T15:12:21.600Z,63.00
2023-04-18T15:14:49.831Z,63.00
2023-04-18T15:17:17.986Z,63.10
2023-04-18T15:19:46.126Z,63.10
2023-04-18T15:22:14.309Z,63.20
2023-04-18T15:24:43.916Z,63.30
2023-04-18T15:27:12.843Z,63.30
2023-04-18T15:29:41.103Z,63.10
2023-04-18T15:32:09.897Z,63.30
2023-04-18T15:34:38.349Z,63.30
2023-04-18T15:37:06.549Z,63.10
2023-04-18T15:39:34.845Z,63.10
2023-04-18T15:42:04.473Z,63.10
2023-04-18T15:44:32.676Z,63.20
2023-04-18T15:47:01.836Z,63.20
2023-04-18T15:49:30.139Z,63.20
2023-04-18T15:51:58.292Z,63.80
2023-04-18T15:54:26.532Z,63.20
2023-04-18T15:56:55.614Z,63.20
2023-04-18T15:59:25.176Z,63.10
2023-04-18T16:01:53.472Z,63.00
2023-04-18T16:04:21.893Z,62.80
2023-04-18T16:06:50.146Z,62.80
2023-04-18T16:09:18.624Z,62.80
2023-04-18T16:11:46.888Z,62.80
2023-04-18T16:14:15.267Z,62.80
2023-04-18T16:16:45.061Z,62.80
2023-04-18T16:19:13.115Z,62.90
2023-04-18T16:21:41.298Z,62.90
2023-04-18T16:24:09.627Z,62.90
2023-04-18T16:26:37.868Z,62.90
2023-04-18T16:29:06.238Z,62.90
2023-04-18T16:31:34.970Z,63.00
2023-04-18T16:34:04.646Z,63.00
2023-04-18T16:36:35.430Z,63.00
2023-04-18T16:39:04.797Z,62.90
2023-04-18T16:41:32.972Z,63.00
2023-04-18T16:44:01.057Z,63.00
2023-04-18T16:46:31.373Z,63.00
2023-04-18T16:49:01.546Z,63.00
2023-04-18T16:51:32.644Z,63.00
2023-04-18T16:54:00.755Z,63.00
2023-04-18T16:56:29.721Z,63.00
2023-04-18T16:58:58.091Z,63.00
2023-04-18T17:01:26.336Z,63.00
2023-04-18T17:03:54.575Z,63.00
2023-04-18T17:08:54.571Z,63.00
2023-04-18T17:11:23.323Z,63.10
2023-04-18T17:13:51.482Z,63.70
2023-04-18T17:16:20.134Z,63.10
2023-04-18T17:18:48.454Z,63.10
2023-04-18T17:21:16.580Z,63.10
2023-04-18T17:23:44.881Z,63.10
2023-04-18T17:26:14.542Z,63.10
2023-04-18T17:28:43.025Z,63.10
2023-04-18T17:31:11.292Z,63.10
2023-04-18T17:33:39.564Z,63.10
2023-04-18T17:36:08.237Z,63.10
2023-04-18T17:38:36.418Z,63.10
2023-04-18T17:41:05.770Z,63.10
2023-04-18T17:43:35.499Z,63.20
2023-04-18T17:46:03.887Z,63.20
2023-04-18T17:48:32.169Z,63.20
2023-04-18T17:51:00.439Z,63.20
2023-04-18T17:53:31.466Z,63.20
2023-04-18T17:56:00.556Z,63.20
2023-04-18T17:58:29.392Z,63.20
2023-04-18T18:00:58.934Z,63.20
2023-04-18T18:03:27.529Z,63.20
2023-04-18T18:05:56.022Z,63.30
2023-04-18T18:08:24.322Z,63.20
2023-04-18T18:10:52.585Z,63.20
2023-04-18T18:13:20.815Z,63.30
2023-04-18T18:15:49.047Z,63.30
2023-04-18T18:18:18.724Z,63.30
2023-04-18T18:20:47.041Z,63.30
2023-04-18T18:23:15.353Z,63.30
2023-04-18T18:25:43.676Z,63.30
2023-04-18T18:28:11.969Z,63.30
2023-04-18T18:30:40.225Z,63.30
2023-04-18T18:33:08.528Z,63.40
2023-04-18T18:35:38.215Z,63.40
2023-04-18T18:38:06.528Z,63.40
2023-04-18T18:40:35.113Z,63.40
2023-04-18T18:43:03.276Z,63.40
2023-04-18T18:45:31.480Z,63.40
2023-04-18T18:47:59.970Z,63.40
2023-04-18T18:50:28.382Z,63.40
2023-04-18T18:52:57.986Z,63.40
2023-04-18T18:55:26.232Z,63.40
2023-04-18T18:57:54.421Z,63.40
2023-04-18T19:00:23.919Z,63.40
2023-04-18T19:02:52.541Z,63.30
2023-04-18T19:05:21.177Z,63.40
2023-04-18T19:07:51.478Z,63.40
2023-04-18T19:10:21.218Z,63.40
2023-04-18T19:12:49.481Z,63.40
2023-04-18T19:15:18.080Z,63.40
2023-04-18T19:17:46.188Z,63.40
2023-04-18T19:20:15.034Z,63.40
2023-04-18T19:22:43.341Z,63.50
2023-04-18T19:25:11.801Z,63.50
2023-04-18T19:27:41.605Z,63.50
2023-04-18T19:30:11.149Z,63.50
2023-04-18T19:32:39.586Z,63.50
2023-04-18T19:35:09.895Z,63.50
2023-04-18T19:37:38.110Z,63.50
2023-04-18T19:40:07.761Z,63.50
2023-04-18T19:42:36.052Z,63.60
2023-04-18T19:45:06.547Z,63.50
2023-04-18T19:47:34.904Z,63.60
2023-04-18T19:50:03.076Z,63.50
2023-04-18T19:52:31.259Z,63.60
2023-04-18T19:54:59.705Z,63.50
2023-04-18T19:57:28.974Z,63.60
2023-04-18T19:59:57.308Z,63.60
2023-04-18T20:02:27.364Z,63.60
2023-04-18T20:04:55.862Z,63.60
2023-04-18T20:07:26.248Z,63.60
2023-04-18T20:09:54.787Z,63.60
2023-04-18T20:12:23.544Z,63.60
2023-04-18T20:14:52.238Z,63.60
2023-04-18T20:17:20.550Z,63.60
2023-04-18T20:19:51.047Z,63.60
2023-04-18T20:22:20.308Z,63.70
2023-04-18T20:24:49.113Z,63.70
2023-04-18T20:27:20.400Z,63.70
2023-04-18T20:29:48.604Z,63.70
2023-04-18T20:32:16.720Z,63.70
2023-04-18T20:34:45.743Z,63.70
2023-04-18T20:37:19.761Z,63.70
2023-04-18T20:39:48.192Z,63.70
2023-04-18T20:42:17.590Z,63.70
2023-04-18T20:44:46.975Z,63.70
2023-04-18T20:47:16.046Z,63.70
2023-04-18T20:49:44.340Z,63.70
2023-04-18T20:52:14.510Z,63.70
2023-04-18T20:54:42.812Z,63.70
2023-04-18T20:57:11.108Z,63.70
2023-04-18T20:59:39.272Z,63.80
2023-04-18T21:02:09.026Z,63.70
2023-04-18T21:04:37.516Z,63.80
2023-04-18T21:07:05.859Z,63.80
2023-04-18T21:09:36.995Z,63.80
2023-04-18T21:12:06.505Z,63.80
2023-04-18T21:14:34.778Z,63.80
2023-04-18T21:17:02.946Z,63.80
2023-04-18T21:19:31.228Z,63.80
2023-04-18T21:21:59.430Z,63.90
2023-04-18T21:24:27.613Z,63.90
2023-04-18T21:26:57.770Z,63.90
2023-04-18T21:29:25.929Z,63.90
2023-04-18T21:31:54.566Z,63.90
2023-04-18T21:34:22.871Z,63.90
2023-04-18T21:36:51.086Z,63.90
2023-04-18T21:39:19.320Z,63.90
2023-04-18T21:41:47.532Z,63.90
2023-04-18T21:44:18.841Z,63.90
2023-04-18T21:46:47.198Z,63.90
2023-04-18T21:49:15.458Z,63.90
2023-04-18T21:51:44.890Z,63.90
2023-04-18T21:54:13.367Z,63.90
2023-04-18T21:56:41.828Z,63.90
2023-04-18T21:59:10.258Z,63.80
2023-04-18T22:01:39.972Z,63.90
2023-04-18T22:04:09.026Z,63.90
2023-04-18T22:06:37.390Z,64.00
2023-04-18T22:09:06.053Z,63.90
2023-04-18T22:11:34.182Z,63.90
2023-04-18T22:14:02.473Z,64.00
2023-04-18T22:16:30.668Z,63.90
2023-04-18T22:19:01.159Z,64.00
2023-04-18T22:21:29.342Z,63.90
2023-04-18T22:23:57.548Z,64.00
2023-04-18T22:26:25.844Z,64.00
2023-04-18T22:28:54.050Z,63.90
2023-04-18T22:31:22.227Z,63.90
2023-04-18T22:33:50.510Z,63.90
2023-04-18T22:36:20.071Z,63.90
2023-04-18T22:38:48.255Z,64.00
2023-04-18T22:41:16.415Z,63.90
2023-04-18T22:43:44.684Z,63.90
2023-04-18T22:46:12.921Z,63.90
2023-04-18T22:48:41.162Z,64.00
2023-04-18T22:51:09.326Z,64.00
2023-04-18T22:53:38.936Z,63.90
2023-04-18T22:56:07.809Z,64.00
2023-04-18T22:58:36.134Z,63.90
2023-04-18T23:01:04.305Z,64.00
2023-04-18T23:03:34.311Z,64.10
2023-04-18T23:06:02.875Z,64.00
2023-04-18T23:08:31.014Z,64.00
2023-04-18T23:11:00.620Z,64.00
2023-04-18T23:13:28.705Z,64.00
2023-04-18T23:15:56.865Z,64.00
2023-04-18T23:18:25.057Z,64.00
2023-04-18T23:20:53.236Z,64.00
2023-04-18T23:23:21.465Z,64.10
2023-04-18T23:25:49.666Z,64.00
2023-04-18T23:28:19.257Z,64.00
2023-04-18T23:30:48.068Z,64.10
2023-04-18T23:33:16.646Z,64.00
2023-04-18T23:35:44.863Z,64.00
2023-04-18T23:38:13.082Z,64.10
2023-04-18T23:40:41.260Z,64.00
2023-04-18T23:43:09.527Z,64.00
2023-04-18T23:45:39.136Z,64.00
2023-04-18T23:48:07.681Z,64.10
2023-04-18T23:50:36.862Z,64.10
2023-04-18T23:53:05.023Z,64.00
2023-04-18T23:55:33.160Z,64.00
2023-04-18T23:58:01.326Z,64.00
